KIAD/IAD METAR and TAF weather

Enter ICAO airport designator
Station Type Date Time Source
KIAD METAR 2020/04/05 14:52 UTC NOAA

KIAD 051452Z 18007KT 10SM FEW120 BKN250 14/07 A3009 RMK AO2 SLP189 T01440072 51003


Station Type Date Time Source
KIAD Decoded METAR 2020/04/05 14:52 UTC NOAA

DULLES INTERNATIONAL AIRPORT, VA, United States (KIAD) 38-56N 077-27W 93M
Apr 05, 2020 - 10:52 AM EDT / 2020.04.05 1452 UTC
Wind: from the S (180 degrees) at 8 MPH (7 KT):0
Visibility: 10 mile(s):0
Sky conditions: mostly cloudy
Temperature: 57.9 F (14.4 C)
Dew Point: 45.0 F (7.2 C)
Relative Humidity: 61%
Pressure (altimeter): 30.09 in. Hg (1018 hPa)
Pressure tendency: 0.01 inches (0.3 hPa) higher than three hours ago
ob: KIAD 051452Z 18007KT 10SM FEW120 BKN250 14/07 A3009 RMK AO2 SLP189 T01440072 51003
cycle: 15

Station Type Date Time Source
KIAD TAF 2020/04/05 15:42 UTC NOAA

TAF
AMD KIAD 051439Z 0515/0618 20006KT P6SM FEW100 BKN200
FM051700 22005KT P6SM BKN100
FM060500 VRB03KT P6SM SCT060
FM061000 34004KT P6SM SCT020
FM061100 36005KT P6SM SCT025

Example: see airport list